createdAt,value
2019-01-03T00:01:19.977Z,80.00
2019-01-03T00:04:13.915Z,79.77
2019-01-03T00:07:20.939Z,80.70
2019-01-03T00:10:08.774Z,80.74
2019-01-03T00:13:12.171Z,81.20
2019-01-03T00:16:00.314Z,81.20
2019-01-03T00:18:48.866Z,81.66
2019-01-03T00:21:49.808Z,81.66
2019-01-03T00:24:44.501Z,82.02
2019-01-03T00:27:45.240Z,82.47
2019-01-03T00:30:51.815Z,83.75
2019-01-03T00:33:43.235Z,83.59
2019-01-03T00:36:30.350Z,83.33
2019-01-03T00:39:18.799Z,83.33
2019-01-03T00:42:07.451Z,82.32
2019-01-03T00:44:54.777Z,82.32
2019-01-03T00:47:49.777Z,83.61
2019-01-03T00:50:37.003Z,83.13
2019-01-03T00:53:27.084Z,83.13
2019-01-03T00:56:15.739Z,83.62
2019-01-03T00:59:04.392Z,83.72
2019-01-03T01:01:51.919Z,84.17
2019-01-03T01:04:40.572Z,83.22
2019-01-03T01:07:31.889Z,83.22
2019-01-03T01:10:18.290Z,83.20
2019-01-03T01:13:15.751Z,83.71
2019-01-03T01:16:07.578Z,83.71
2019-01-03T01:19:11.202Z,83.41
2019-01-03T01:21:58.102Z,82.64
2019-01-03T01:24:44.807Z,82.64
2019-01-03T01:27:41.037Z,83.03
2019-01-03T01:30:27.850Z,82.95
2019-01-03T01:33:35.244Z,83.26
2019-01-03T01:36:20.618Z,82.92
2019-01-03T01:39:17.875Z,82.51
2019-01-03T01:42:12.260Z,83.16
2019-01-03T01:45:01.222Z,83.16
2019-01-03T01:47:49.261Z,83.54
2019-01-03T01:50:40.986Z,83.13
2019-01-03T01:53:35.272Z,83.34
2019-01-03T01:56:23.007Z,83.44
2019-01-03T01:59:17.193Z,83.47
2019-01-03T02:01:57.650Z,83.46
2019-01-03T02:04:48.557Z,83.29
2019-01-03T02:07:35.569Z,83.78
2019-01-03T02:10:29.959Z,84.37
2019-01-03T02:13:27.852Z,83.68
2019-01-03T02:16:34.507Z,83.86
2019-01-03T02:19:21.623Z,83.76
2019-01-03T02:22:24.818Z,83.80
2019-01-03T02:25:12.039Z,83.45
2019-01-03T02:27:59.649Z,83.61
2019-01-03T02:30:47.137Z,83.89
2019-01-03T02:33:33.904Z,83.98
2019-01-03T02:36:21.430Z,84.67
2019-01-03T02:39:19.095Z,84.61
2019-01-03T02:42:19.704Z,84.40
2019-01-03T02:45:07.668Z,84.64
2019-01-03T02:47:57.445Z,84.72
2019-01-03T02:50:45.905Z,84.77
2019-01-03T02:53:34.750Z,85.20
2019-01-03T02:56:40.623Z,85.36
2019-01-03T02:59:39.920Z,85.50
2019-01-03T03:02:24.173Z,85.55
2019-01-03T03:05:29.204Z,85.76
2019-01-03T03:08:26.255Z,85.99
2019-01-03T03:11:21.271Z,85.57
2019-01-03T03:14:09.092Z,86.10
2019-01-03T03:17:13.312Z,85.48
2019-01-03T03:20:00.020Z,86.14
2019-01-03T03:22:48.575Z,85.42
2019-01-03T03:25:46.663Z,85.56
2019-01-03T03:28:33.561Z,86.11
2019-01-03T03:31:21.605Z,86.93
2019-01-03T03:34:09.439Z,87.55
2019-01-03T03:37:12.937Z,88.17
2019-01-03T03:40:13.468Z,88.16
2019-01-03T03:43:00.382Z,88.74
2019-01-03T03:46:06.547Z,88.42
2019-01-03T03:48:57.863Z,89.00
2019-01-03T03:51:55.425Z,89.93
2019-01-03T03:54:57.084Z,90.23
2019-01-03T03:57:48.224Z,89.94
2019-01-03T04:00:36.435Z,89.93
2019-01-03T04:03:28.067Z,89.82
2019-01-03T04:06:16.406Z,89.91
2019-01-03T04:09:08.438Z,90.68
2019-01-03T04:11:59.453Z,91.48
2019-01-03T04:14:56.906Z,91.32
2019-01-03T04:17:51.511Z,90.99
2019-01-03T04:20:33.408Z,90.94
2019-01-03T04:23:24.207Z,91.38
2019-01-03T04:26:11.437Z,91.89
2019-01-03T04:29:09.917Z,92.71
2019-01-03T04:31:58.455Z,93.00
2019-01-03T04:34:46.394Z,93.07
2019-01-03T04:37:33.719Z,93.05
2019-01-03T04:40:24.525Z,92.94
2019-01-03T04:43:06.312Z,93.10
2019-01-03T04:45:52.921Z,92.91
2019-01-03T04:48:47.413Z,92.99
2019-01-03T04:51:42.720Z,93.02
2019-01-03T04:54:29.739Z,93.50
2019-01-03T04:57:16.588Z,93.26
2019-01-03T05:00:10.162Z,93.99
2019-01-03T05:02:57.336Z,93.82
2019-01-03T05:05:57.868Z,93.79
2019-01-03T05:08:57.649Z,94.46
2019-01-03T05:11:47.338Z,94.61
2019-01-03T05:14:38.269Z,94.44
2019-01-03T05:17:42.284Z,94.45
2019-01-03T05:20:42.610Z,94.67
2019-01-03T05:23:31.264Z,95.00
2019-01-03T05:26:23.090Z,95.07
2019-01-03T05:29:10.314Z,94.92
2019-01-03T05:31:57.329Z,94.89
2019-01-03T05:34:45.880Z,94.56
2019-01-03T05:37:40.386Z,94.04
2019-01-03T05:40:27.587Z,93.81
2019-01-03T05:43:15.781Z,94.04
2019-01-03T05:46:04.297Z,94.07
2019-01-03T05:49:04.514Z,93.82
2019-01-03T05:52:05.963Z,93.66
2019-01-03T05:54:52.670Z,94.22
2019-01-03T05:57:40.299Z,94.23
2019-01-03T06:00:37.450Z,94.23
2019-01-03T06:03:34.807Z,94.03
2019-01-03T06:06:29.404Z,94.18
2019-01-03T06:09:16.623Z,93.92
2019-01-03T06:12:04.557Z,94.33
2019-01-03T06:14:53.109Z,94.30
2019-01-03T06:17:53.247Z,94.75
2019-01-03T06:20:45.983Z,95.07
2019-01-03T06:23:32.692Z,95.26
2019-01-03T06:26:23.597Z,95.49
2019-01-03T06:29:14.513Z,95.49
2019-01-03T06:32:03.402Z,95.56
2019-01-03T06:34:57.852Z,95.75
2019-01-03T06:37:45.688Z,95.15
2019-01-03T06:40:29.141Z,95.15
2019-01-03T06:43:16.135Z,95.15
2019-01-03T06:46:04.788Z,94.72
2019-01-03T06:49:01.551Z,94.85
2019-01-03T06:51:47.727Z,94.83
2019-01-03T06:54:43.036Z,94.78
2019-01-03T06:57:29.541Z,95.07
2019-01-03T07:00:17.068Z,94.97
2019-01-03T07:03:01.830Z,95.08
2019-01-03T07:06:08.403Z,95.78
2019-01-03T07:08:56.443Z,95.62
2019-01-03T07:11:54.824Z,95.62
2019-01-03T07:14:51.776Z,95.93
2019-01-03T07:17:40.124Z,96.17
2019-01-03T07:20:40.222Z,96.17
2019-01-03T07:23:27.875Z,96.32
2019-01-03T07:26:17.961Z,96.38
2019-01-03T07:29:08.030Z,96.26
2019-01-03T07:32:04.207Z,96.13
2019-01-03T07:34:52.010Z,96.26
2019-01-03T07:37:43.235Z,96.25
2019-01-03T07:40:35.768Z,96.61
2019-01-03T07:43:39.373Z,96.61
2019-01-03T07:46:36.942Z,96.39
2019-01-03T07:49:25.077Z,96.36
2019-01-03T07:52:13.525Z,96.52
2019-01-03T07:55:02.282Z,96.52
2019-01-03T07:57:56.568Z,96.39
2019-01-03T08:00:53.210Z,96.31
2019-01-03T08:03:44.831Z,96.19
2019-01-03T08:06:34.408Z,96.19
2019-01-03T08:09:25.724Z,96.22
2019-01-03T08:12:19.908Z,96.23
2019-01-03T08:15:09.071Z,96.13
2019-01-03T08:17:50.967Z,95.94
2019-01-03T08:20:40.044Z,95.89
2019-01-03T08:23:34.214Z,95.89
2019-01-03T08:26:21.641Z,96.11
2019-01-03T08:29:18.696Z,95.88
2019-01-03T08:32:19.430Z,96.31
2019-01-03T08:35:06.647Z,96.41
2019-01-03T08:38:10.560Z,96.01
2019-01-03T08:41:13.856Z,96.01
2019-01-03T08:44:14.492Z,95.78
2019-01-03T08:47:20.483Z,95.86
2019-01-03T08:50:17.603Z,95.88
2019-01-03T08:53:04.418Z,95.58
2019-01-03T08:56:05.050Z,95.42
2019-01-03T08:58:52.165Z,95.22
2019-01-03T09:01:43.078Z,95.50
2019-01-03T09:04:29.891Z,95.41
2019-01-03T09:07:36.973Z,95.09
2019-01-03T09:10:25.319Z,95.05
2019-01-03T09:13:14.177Z,95.00
2019-01-03T09:16:05.392Z,94.89
2019-01-03T09:18:52.507Z,95.00
2019-01-03T09:21:44.440Z,94.93
2019-01-03T09:24:31.367Z,94.85
2019-01-03T09:27:23.689Z,94.66
2019-01-03T09:30:17.974Z,94.63
2019-01-03T09:33:09.086Z,94.95
2019-01-03T09:35:56.718Z,95.04
2019-01-03T09:38:44.821Z,94.89
2019-01-03T09:41:37.504Z,94.97
2019-01-03T09:44:24.327Z,94.93
2019-01-03T09:46:53.095Z,94.49
2019-01-03T09:49:21.578Z,94.20
2019-01-03T09:51:49.690Z,94.54
2019-01-03T09:54:17.927Z,94.90
2019-01-03T09:56:46.266Z,95.02
2019-01-03T09:59:15.722Z,95.25
2019-01-03T10:01:43.972Z,95.59
2019-01-03T10:04:12.366Z,95.36
2019-01-03T10:06:41.192Z,95.47
2019-01-03T10:09:09.631Z,94.95
2019-01-03T10:11:38.254Z,94.93
2019-01-03T10:14:06.392Z,94.08
2019-01-03T10:16:34.692Z,93.75
2019-01-03T10:19:03.557Z,93.53
2019-01-03T10:21:31.890Z,93.91
2019-01-03T10:24:00.627Z,94.06
2019-01-03T10:26:28.800Z,94.46
2019-01-03T10:28:58.962Z,94.70
2019-01-03T10:31:27.277Z,94.59
2019-01-03T10:33:55.506Z,94.19
2019-01-03T10:36:24.521Z,94.64
2019-01-03T10:38:52.841Z,94.52
2019-01-03T10:41:21.823Z,94.89
2019-01-03T10:43:50.875Z,94.85
2019-01-03T10:46:19.001Z,94.61
2019-01-03T10:48:47.239Z,94.45
2019-01-03T10:51:15.377Z,94.23
2019-01-03T10:53:43.505Z,93.92
2019-01-03T10:56:11.591Z,94.13
2019-01-03T10:58:40.050Z,93.81
2019-01-03T11:01:13.541Z,93.44
2019-01-03T11:03:42.878Z,93.44
2019-01-03T11:06:11.979Z,93.31
2019-01-03T11:08:40.353Z,92.97
2019-01-03T11:11:08.570Z,93.00
2019-01-03T11:13:38.434Z,93.06
2019-01-03T11:16:07.195Z,91.42
2019-01-03T11:18:36.208Z,91.88
2019-01-03T11:21:04.741Z,92.36
2019-01-03T11:23:39.139Z,92.51
2019-01-03T11:26:07.240Z,92.86
2019-01-03T11:28:35.324Z,92.83
2019-01-03T11:31:04.655Z,92.17
2019-01-03T11:33:32.891Z,92.43
2019-01-03T11:36:01.098Z,92.58
2019-01-03T11:38:29.260Z,92.83
2019-01-03T11:40:59.058Z,92.98
2019-01-03T11:43:27.275Z,93.16
2019-01-03T11:45:55.509Z,93.09
2019-01-03T11:48:23.677Z,93.16
2019-01-03T11:50:52.644Z,92.43
2019-01-03T11:53:21.508Z,92.98
2019-01-03T11:55:49.786Z,92.99
2019-01-03T11:58:19.273Z,92.99
2019-01-03T12:00:47.854Z,93.36
2019-01-03T12:03:15.993Z,93.76
2019-01-03T12:05:45.057Z,94.20
2019-01-03T12:08:14.239Z,94.16
2019-01-03T12:10:42.351Z,94.39
2019-01-03T12:13:11.926Z,94.39
2019-01-03T12:15:40.592Z,94.19
2019-01-03T12:18:08.728Z,94.25
2019-01-03T12:20:38.054Z,94.28
2019-01-03T12:23:06.213Z,94.04
2019-01-03T12:25:35.613Z,93.72
2019-01-03T12:28:03.801Z,93.57
2019-01-03T12:30:31.922Z,92.18
2019-01-03T12:33:00.961Z,91.61
2019-01-03T12:35:29.586Z,92.56
2019-01-03T12:37:57.723Z,92.75
2019-01-03T12:40:25.999Z,92.57
2019-01-03T12:42:54.296Z,92.50
2019-01-03T12:45:23.070Z,93.32
2019-01-03T12:47:51.359Z,93.71
2019-01-03T12:50:19.710Z,93.98
2019-01-03T12:52:48.018Z,94.04
2019-01-03T12:55:16.985Z,93.54
2019-01-03T12:57:46.711Z,93.62
2019-01-03T13:00:15.293Z,93.68
2019-01-03T13:02:43.877Z,93.72
2019-01-03T13:05:13.339Z,93.83
2019-01-03T13:07:41.376Z,94.08
2019-01-03T13:10:09.721Z,93.71
2019-01-03T13:12:37.859Z,93.60
2019-01-03T13:15:07.440Z,93.04
2019-01-03T13:17:35.397Z,93.36
2019-01-03T13:20:04.038Z,93.37
2019-01-03T13:22:32.331Z,93.27
2019-01-03T13:25:01.396Z,93.41
2019-01-03T13:27:30.550Z,93.27
2019-01-03T13:29:58.497Z,93.00
2019-01-03T13:32:26.765Z,92.92
2019-01-03T13:34:56.099Z,92.84
2019-01-03T13:37:24.625Z,93.30
2019-01-03T13:39:53.931Z,93.64
2019-01-03T13:42:22.338Z,94.06
2019-01-03T13:44:51.099Z,94.03
2019-01-03T13:47:19.320Z,94.06
2019-01-03T13:49:47.897Z,94.11
2019-01-03T13:52:16.247Z,93.86
2019-01-03T13:54:45.009Z,94.29
2019-01-03T13:57:13.021Z,94.39
2019-01-03T13:59:41.844Z,94.31
2019-01-03T14:02:09.968Z,94.75
2019-01-03T14:04:38.063Z,94.82
2019-01-03T14:07:06.316Z,94.72
2019-01-03T14:09:34.974Z,94.38
2019-01-03T14:12:03.494Z,94.30
2019-01-03T14:14:31.909Z,93.93
2019-01-03T14:17:01.460Z,93.92
2019-01-03T14:19:31.359Z,93.69
2019-01-03T14:22:02.319Z,93.60
2019-01-03T14:24:30.864Z,93.63
2019-01-03T14:27:01.501Z,93.77
2019-01-03T14:29:29.712Z,93.78
2019-01-03T14:31:57.951Z,93.72
2019-01-03T14:34:25.988Z,93.76
2019-01-03T14:36:55.170Z,93.97
2019-01-03T14:39:23.374Z,94.01
2019-01-03T14:41:52.539Z,93.92
2019-01-03T14:44:31.650Z,94.31
2019-01-03T14:47:00.232Z,94.16
2019-01-03T14:49:29.153Z,94.27
2019-01-03T14:51:57.803Z,94.29
2019-01-03T14:54:25.891Z,94.57
2019-01-03T14:56:54.638Z,94.19
2019-01-03T14:59:23.776Z,93.71
2019-01-03T15:01:52.253Z,93.75
2019-01-03T15:04:20.723Z,94.28
2019-01-03T15:06:50.341Z,94.57
2019-01-03T15:09:19.334Z,94.79
2019-01-03T15:11:47.494Z,94.81
2019-01-03T15:14:15.956Z,95.22
2019-01-03T15:16:43.951Z,95.06
2019-01-03T15:19:11.827Z,94.85
2019-01-03T15:21:40.410Z,94.77
2019-01-03T15:24:08.681Z,94.86
2019-01-03T15:26:37.035Z,94.90
2019-01-03T15:29:05.259Z,95.20
2019-01-03T15:31:34.224Z,95.17
2019-01-03T15:34:03.411Z,95.32
2019-01-03T15:36:31.784Z,95.36
2019-01-03T15:39:02.441Z,95.25
2019-01-03T15:41:31.526Z,95.13
2019-01-03T15:43:59.815Z,95.02
2019-01-03T15:46:28.237Z,95.17
2019-01-03T15:48:56.705Z,95.05
2019-01-03T15:51:25.502Z,95.10
2019-01-03T15:53:53.707Z,95.00
2019-01-03T15:56:23.035Z,95.07
2019-01-03T15:58:52.416Z,95.36
2019-01-03T16:01:20.567Z,95.22
2019-01-03T16:03:48.695Z,95.14
2019-01-03T16:06:20.351Z,95.26
2019-01-03T16:08:48.757Z,95.19
2019-01-03T16:11:18.813Z,95.26
2019-01-03T16:13:48.580Z,95.73
2019-01-03T16:16:17.548Z,95.57
2019-01-03T16:18:45.860Z,95.46
2019-01-03T16:21:14.003Z,95.36
2019-01-03T16:23:42.754Z,94.98
2019-01-03T16:26:13.228Z,95.06
2019-01-03T16:28:43.883Z,95.11
2019-01-03T16:31:14.102Z,95.11
2019-01-03T16:39:55.783Z,95.20
2019-01-03T16:42:37.764Z,95.05
2019-01-03T16:45:07.618Z,95.05
2019-01-03T16:47:40.150Z,95.01
2019-01-03T16:50:20.957Z,95.00
2019-01-03T16:52:50.889Z,95.05
2019-01-03T16:55:21.887Z,95.02
2019-01-03T16:57:52.612Z,95.24
2019-01-03T17:00:27.332Z,95.14
2019-01-03T17:02:59.572Z,95.05
2019-01-03T17:05:29.128Z,95.00
2019-01-03T17:08:00.063Z,94.94
2019-01-03T17:10:32.122Z,94.78
2019-01-03T17:13:10.772Z,94.82
2019-01-03T17:15:39.980Z,94.83
2019-01-03T17:18:09.820Z,94.43
2019-01-03T17:20:41.056Z,94.22
2019-01-03T17:23:10.563Z,94.06
2019-01-03T17:25:41.574Z,94.05
2019-01-03T17:28:15.393Z,94.03
2019-01-03T17:30:45.212Z,94.07
2019-01-03T17:33:14.505Z,94.06
2019-01-03T17:35:45.471Z,94.05
2019-01-03T17:38:18.766Z,93.79
2019-01-03T17:40:50.152Z,94.09
2019-01-03T17:43:20.291Z,94.95
2019-01-03T17:45:56.163Z,94.95
2019-01-03T17:48:34.740Z,94.45
2019-01-03T17:51:12.232Z,94.13
2019-01-03T17:53:43.411Z,94.15
2019-01-03T17:56:15.860Z,94.61
2019-01-03T17:58:49.958Z,94.40
2019-01-03T18:01:24.758Z,94.56
2019-01-03T18:03:59.009Z,94.62
2019-01-03T18:06:33.940Z,95.42
2019-01-03T18:09:11.316Z,95.71
2019-01-03T18:11:44.800Z,96.02
2019-01-03T18:14:14.361Z,95.78
2019-01-03T18:16:44.789Z,95.37
2019-01-03T18:19:20.996Z,95.79
2019-01-03T18:21:52.653Z,96.82
2019-01-03T18:24:21.969Z,97.09
2019-01-03T18:26:53.687Z,97.23
2019-01-03T18:29:23.485Z,97.20
2019-01-03T18:31:53.563Z,97.26
2019-01-03T18:34:26.078Z,97.53
2019-01-03T18:36:55.996Z,97.56
2019-01-03T18:39:27.863Z,97.32
2019-01-03T18:42:01.160Z,97.32
2019-01-03T18:44:30.782Z,96.59
2019-01-03T18:47:07.713Z,96.59
2019-01-03T18:49:43.823Z,96.22
2019-01-03T18:52:18.441Z,95.99
2019-01-03T18:54:50.007Z,95.76
2019-01-03T18:57:21.603Z,95.52
2019-01-03T19:00:02.314Z,95.52
2019-01-03T19:02:36.786Z,95.42
2019-01-03T19:05:06.178Z,95.26
2019-01-03T19:07:40.444Z,95.14
2019-01-03T19:10:12.000Z,95.01
2019-01-03T19:12:44.907Z,95.08
2019-01-03T19:15:18.870Z,95.16
2019-01-03T19:17:53.776Z,95.45
2019-01-03T19:20:23.488Z,95.33
2019-01-03T19:22:53.275Z,95.38
2019-01-03T19:25:23.591Z,95.51
2019-01-03T19:27:52.790Z,95.51
2019-01-03T19:30:25.059Z,95.71
2019-01-03T19:32:54.924Z,95.86
2019-01-03T19:35:27.085Z,96.06
2019-01-03T19:37:59.962Z,96.30
2019-01-03T19:40:33.444Z,96.48
2019-01-03T19:43:05.165Z,96.47
2019-01-03T19:45:36.182Z,96.55
2019-01-03T19:48:06.501Z,96.43
2019-01-03T19:50:44.578Z,96.31
2019-01-03T19:53:16.920Z,96.06
2019-01-03T19:55:47.422Z,95.85
2019-01-03T19:58:21.983Z,95.78
2019-01-03T20:00:51.462Z,96.02
2019-01-03T20:03:23.543Z,96.01
2019-01-03T20:05:56.195Z,96.98
2019-01-03T20:08:29.320Z,97.29
2019-01-03T20:10:59.308Z,97.67
2019-01-03T20:13:30.854Z,97.58
2019-01-03T20:16:02.305Z,97.33
2019-01-03T20:18:34.040Z,97.39
2019-01-03T20:21:09.281Z,97.61
2019-01-03T20:23:39.260Z,97.61
2019-01-03T20:26:14.337Z,97.28
2019-01-03T20:28:44.735Z,97.50
2019-01-03T20:31:19.931Z,97.59
2019-01-03T20:33:51.199Z,97.50
2019-01-03T20:36:28.232Z,97.37
2019-01-03T20:39:07.955Z,97.21
2019-01-03T20:41:40.359Z,97.14
2019-01-03T20:44:13.115Z,97.14
2019-01-03T20:46:45.623Z,97.20
2019-01-03T20:49:21.216Z,97.18
2019-01-03T20:51:52.293Z,97.13
2019-01-03T20:54:25.355Z,96.99
2019-01-03T20:56:56.897Z,96.95
2019-01-03T20:59:34.843Z,96.87
2019-01-03T21:02:08.731Z,96.94
2019-01-03T21:04:38.498Z,96.94
2019-01-03T21:07:15.046Z,96.90
2019-01-03T21:09:46.247Z,97.02
2019-01-03T21:12:19.899Z,96.94
2019-01-03T21:14:52.987Z,97.16
2019-01-03T21:17:24.263Z,97.04
2019-01-03T21:19:53.827Z,96.87
2019-01-03T21:22:28.177Z,96.74
2019-01-03T21:28:58.743Z,96.46
2019-01-03T21:31:46.166Z,96.81
2019-01-03T21:34:33.878Z,97.15
2019-01-03T21:37:21.321Z,97.37
2019-01-03T21:40:13.077Z,97.45
2019-01-03T21:43:00.084Z,97.34
2019-01-03T21:45:54.454Z,97.58
2019-01-03T21:48:52.974Z,97.23
2019-01-03T21:51:40.157Z,97.23
2019-01-03T21:54:27.602Z,97.53
2019-01-03T21:56:56.883Z,97.53
2019-01-03T21:59:26.029Z,97.53
2019-01-03T22:01:57.076Z,97.22
2019-01-03T22:04:32.158Z,97.28
2019-01-03T22:07:02.582Z,97.12
2019-01-03T22:09:33.757Z,97.12
2019-01-03T22:12:09.210Z,97.32
2019-01-03T22:14:38.787Z,96.92
2019-01-03T22:17:12.019Z,96.99
2019-01-03T22:19:42.475Z,96.99
2019-01-03T22:22:12.129Z,97.31
2019-01-03T22:24:45.998Z,97.31
2019-01-03T22:27:17.584Z,97.24
2019-01-03T22:29:47.365Z,97.08
2019-01-03T22:32:18.634Z,97.08
2019-01-03T22:34:50.973Z,97.16
2019-01-03T22:37:23.195Z,97.29
2019-01-03T22:39:57.452Z,97.13
2019-01-03T22:42:33.550Z,97.13
2019-01-03T22:45:03.335Z,97.35
2019-01-03T22:47:35.010Z,97.18
2019-01-03T22:50:04.268Z,97.33
2019-01-03T22:52:38.606Z,97.38
2019-01-03T22:55:11.844Z,97.61
2019-01-03T22:57:49.226Z,97.61
2019-01-03T23:00:42.256Z,97.46
2019-01-03T23:03:11.688Z,97.40
2019-01-03T23:05:43.480Z,97.40
2019-01-03T23:08:12.667Z,97.45
2019-01-03T23:10:44.919Z,97.46
2019-01-03T23:13:14.003Z,97.44
2019-01-03T23:15:46.567Z,97.44
2019-01-03T23:18:15.849Z,97.85
2019-01-03T23:20:45.368Z,98.18
2019-01-03T23:23:15.795Z,98.18
2019-01-03T23:25:47.936Z,97.79
2019-01-03T23:28:18.147Z,97.39
2019-01-03T23:30:47.293Z,97.25
2019-01-03T23:33:18.894Z,97.25
2019-01-03T23:35:48.380Z,97.40
2019-01-03T23:38:22.571Z,97.55
2019-01-03T23:40:54.076Z,97.55
2019-01-03T23:43:23.566Z,97.28
2019-01-03T23:45:52.286Z,97.47
2019-01-03T23:48:21.552Z,97.62
2019-01-03T23:50:53.870Z,97.68
2019-01-03T23:53:26.563Z,97.92
2019-01-03T23:56:00.755Z,98.00
2019-01-03T23:58:32.556Z,97.91
